createdAt,value
2019-03-16T00:00:43.608Z,7.86
2019-03-16T00:01:56.134Z,7.86
2019-03-16T00:02:44.599Z,7.88
2019-03-16T00:03:43.578Z,7.82
2019-03-16T00:04:43.567Z,7.81
2019-03-16T00:05:43.650Z,7.82
2019-03-16T00:06:43.543Z,7.85
2019-03-16T00:07:43.543Z,7.84
2019-03-16T00:08:43.525Z,7.79
2019-03-16T00:09:43.513Z,7.73
2019-03-16T00:10:43.510Z,7.74
2019-03-16T00:11:43.594Z,7.77
2019-03-16T00:12:43.491Z,7.85
2019-03-16T00:13:43.485Z,7.79
2019-03-16T00:14:43.456Z,7.81
2019-03-16T00:15:43.446Z,7.79
2019-03-16T00:16:43.434Z,7.76
2019-03-16T00:17:43.432Z,7.77
2019-03-16T00:18:43.415Z,7.74
2019-03-16T00:19:43.413Z,7.74
2019-03-16T00:20:43.391Z,7.82
2019-03-16T00:21:43.382Z,7.74
2019-03-16T00:22:43.380Z,7.74
2019-03-16T00:23:43.358Z,7.77
2019-03-16T00:24:43.354Z,7.76
2019-03-16T00:25:43.335Z,7.73
2019-03-16T00:26:43.327Z,7.74
2019-03-16T00:27:43.323Z,7.69
2019-03-16T00:28:43.304Z,7.69
2019-03-16T00:29:43.294Z,7.69
2019-03-16T00:30:43.283Z,7.69
2019-03-16T00:31:43.271Z,7.66
2019-03-16T00:32:43.292Z,7.70
2019-03-16T00:33:43.248Z,7.71
2019-03-16T00:34:43.238Z,7.67
2019-03-16T00:35:43.227Z,7.70
2019-03-16T00:36:43.220Z,7.66
2019-03-16T00:37:43.216Z,7.69
2019-03-16T00:38:43.220Z,7.69
2019-03-16T00:39:43.184Z,7.66
2019-03-16T00:40:43.174Z,7.60
2019-03-16T00:41:43.160Z,7.70
2019-03-16T00:42:43.339Z,7.67
2019-03-16T00:43:43.140Z,7.71
2019-03-16T00:44:43.128Z,7.67
2019-03-16T00:45:43.120Z,7.60
2019-03-16T00:46:43.109Z,7.58
2019-03-16T00:47:43.099Z,7.66
2019-03-16T00:48:43.096Z,7.71
2019-03-16T00:49:43.077Z,7.67
2019-03-16T00:50:43.065Z,7.70
2019-03-16T00:51:43.052Z,7.51
2019-03-16T00:52:43.043Z,7.55
2019-03-16T00:53:43.046Z,7.60
2019-03-16T00:54:43.023Z,7.54
2019-03-16T00:55:43.008Z,7.58
2019-03-16T00:56:42.999Z,7.54
2019-03-16T00:57:42.987Z,7.63
2019-03-16T00:58:42.987Z,7.66
2019-03-16T00:59:42.967Z,7.54
2019-03-16T01:00:42.955Z,7.57
2019-03-16T01:01:42.945Z,7.51
2019-03-16T01:02:42.933Z,7.54
2019-03-16T01:03:42.932Z,7.54
2019-03-16T01:04:42.911Z,7.52
2019-03-16T01:05:42.942Z,7.50
2019-03-16T01:06:42.889Z,7.55
2019-03-16T01:07:42.879Z,7.50
2019-03-16T01:08:42.885Z,7.57
2019-03-16T01:09:43.769Z,7.54
2019-03-16T01:10:42.846Z,7.50
2019-03-16T01:11:42.835Z,7.52
2019-03-16T01:12:42.824Z,7.45
2019-03-16T01:13:42.823Z,7.47
2019-03-16T01:14:42.801Z,7.60
2019-03-16T01:15:42.793Z,7.52
2019-03-16T01:16:42.781Z,7.54
2019-03-16T01:17:42.767Z,7.44
2019-03-16T01:18:42.769Z,7.58
2019-03-16T01:19:42.746Z,7.57
2019-03-16T01:20:42.739Z,7.50
2019-03-16T01:21:42.728Z,7.50
2019-03-16T01:22:42.715Z,7.42
2019-03-16T01:23:42.879Z,7.60
2019-03-16T01:24:42.703Z,7.57
2019-03-16T01:25:42.683Z,7.55
2019-03-16T01:26:42.674Z,7.57
2019-03-16T01:27:42.661Z,7.54
2019-03-16T01:28:42.654Z,7.58
2019-03-16T01:29:42.649Z,7.55
2019-03-16T01:30:42.634Z,7.51
2019-03-16T01:31:42.617Z,7.51
2019-03-16T01:32:42.609Z,7.57
2019-03-16T01:33:42.596Z,7.48
2019-03-16T01:34:44.223Z,7.51
2019-03-16T01:35:42.575Z,7.51
2019-03-16T01:36:42.562Z,7.50
2019-03-16T01:37:42.553Z,7.47
2019-03-16T01:38:42.550Z,7.52
2019-03-16T01:39:42.539Z,7.50
2019-03-16T01:40:42.518Z,7.48
2019-03-16T01:41:42.520Z,7.50
2019-03-16T01:42:42.496Z,7.44
2019-03-16T01:43:42.485Z,7.44
2019-03-16T01:44:42.502Z,7.44
2019-03-16T01:45:42.465Z,7.41
2019-03-16T01:46:42.456Z,7.47
2019-03-16T01:47:42.442Z,7.44
2019-03-16T01:48:42.432Z,7.39
2019-03-16T01:49:42.430Z,7.50
2019-03-16T01:50:42.409Z,7.50
2019-03-16T01:51:42.398Z,7.42
2019-03-16T01:52:42.388Z,7.45
2019-03-16T01:53:42.378Z,7.42
2019-03-16T01:54:42.377Z,7.41
2019-03-16T01:55:42.356Z,7.41
2019-03-16T01:56:42.346Z,7.42
2019-03-16T01:57:42.335Z,7.44
2019-03-16T01:58:42.325Z,7.48
2019-03-16T01:59:42.352Z,7.37
2019-03-16T02:00:42.300Z,7.44
2019-03-16T02:01:42.291Z,7.41
2019-03-16T02:02:54.185Z,7.47
2019-03-16T02:03:43.267Z,7.48
2019-03-16T02:04:42.257Z,7.42
2019-03-16T02:05:42.254Z,7.37
2019-03-16T02:06:42.239Z,7.47
2019-03-16T02:07:42.254Z,7.45
2019-03-16T02:08:42.242Z,7.37
2019-03-16T02:09:42.204Z,7.39
2019-03-16T02:10:42.201Z,7.39
2019-03-16T02:11:42.184Z,7.44
2019-03-16T02:12:42.171Z,7.34
2019-03-16T02:13:42.161Z,7.41
2019-03-16T02:14:42.148Z,7.44
2019-03-16T02:15:42.146Z,7.39
2019-03-16T02:16:42.130Z,7.41
2019-03-16T02:17:42.118Z,7.41
2019-03-16T02:18:42.105Z,7.37
2019-03-16T02:19:42.094Z,7.32
2019-03-16T02:20:42.108Z,7.36
2019-03-16T02:21:42.151Z,7.32
2019-03-16T02:22:42.061Z,7.41
2019-03-16T02:23:42.050Z,7.36
2019-03-16T02:24:42.040Z,7.37
2019-03-16T02:25:42.040Z,7.42
2019-03-16T02:26:42.021Z,7.41
2019-03-16T02:27:42.006Z,7.36
2019-03-16T02:28:41.996Z,7.42
2019-03-16T02:29:41.983Z,7.37
2019-03-16T02:30:41.985Z,7.44
2019-03-16T02:31:41.965Z,7.33
2019-03-16T02:32:41.956Z,7.37
2019-03-16T02:33:41.943Z,7.37
2019-03-16T02:34:41.932Z,7.41
2019-03-16T02:35:41.936Z,7.36
2019-03-16T02:36:41.912Z,7.36
2019-03-16T02:37:41.900Z,7.33
2019-03-16T02:38:41.889Z,7.37
2019-03-16T02:39:41.880Z,7.36
2019-03-16T02:40:41.874Z,7.34
2019-03-16T02:41:41.856Z,7.34
2019-03-16T02:42:41.845Z,7.32
2019-03-16T02:43:41.832Z,7.33
2019-03-16T02:44:41.825Z,7.33
2019-03-16T02:45:41.825Z,7.33
2019-03-16T02:46:41.798Z,7.34
2019-03-16T02:47:41.793Z,7.41
2019-03-16T02:48:41.780Z,7.41
2019-03-16T02:49:41.773Z,7.29
2019-03-16T02:50:42.269Z,7.39
2019-03-16T02:51:41.748Z,7.32
2019-03-16T02:52:41.735Z,7.41
2019-03-16T02:53:41.725Z,7.33
2019-03-16T02:54:41.724Z,7.39
2019-03-16T02:55:41.703Z,7.37
2019-03-16T02:56:41.718Z,7.34
2019-03-16T02:57:41.684Z,7.33
2019-03-16T02:58:41.669Z,7.34
2019-03-16T02:59:41.657Z,7.37
2019-03-16T03:00:41.646Z,7.30
2019-03-16T03:01:41.648Z,7.34
2019-03-16T03:02:41.650Z,7.36
2019-03-16T03:03:41.619Z,7.33
2019-03-16T03:04:45.698Z,7.39
2019-03-16T03:05:41.596Z,7.33
2019-03-16T03:06:41.593Z,7.34
2019-03-16T03:07:41.614Z,7.34
2019-03-16T03:08:41.561Z,7.34
2019-03-16T03:09:41.550Z,7.39
2019-03-16T03:10:41.540Z,7.37
2019-03-16T03:11:41.536Z,7.33
2019-03-16T03:12:41.519Z,7.33
2019-03-16T03:13:41.507Z,7.37
2019-03-16T03:14:41.503Z,7.30
2019-03-16T03:15:41.556Z,7.33
2019-03-16T03:16:41.482Z,7.36
2019-03-16T03:17:41.463Z,7.27
2019-03-16T03:18:41.475Z,7.37
2019-03-16T03:19:41.440Z,7.30
2019-03-16T03:20:41.434Z,7.30
2019-03-16T03:21:41.430Z,7.29
2019-03-16T03:22:41.407Z,7.29
2019-03-16T03:23:41.398Z,7.23
2019-03-16T03:24:44.274Z,7.33
2019-03-16T03:25:41.379Z,7.36
2019-03-16T03:26:41.374Z,7.30
2019-03-16T03:27:41.359Z,7.27
2019-03-16T03:28:41.341Z,7.30
2019-03-16T03:29:41.343Z,7.34
2019-03-16T03:30:41.322Z,7.30
2019-03-16T03:31:41.323Z,7.19
2019-03-16T03:32:41.308Z,7.29
2019-03-16T03:33:58.777Z,7.30
2019-03-16T03:34:42.282Z,7.23
2019-03-16T03:35:41.268Z,7.24
2019-03-16T03:36:41.275Z,7.26
2019-03-16T03:37:41.246Z,7.26
2019-03-16T03:38:41.246Z,7.32
2019-03-16T03:39:41.224Z,7.30
2019-03-16T03:40:41.214Z,7.33
2019-03-16T03:41:41.218Z,7.29
2019-03-16T03:42:41.190Z,7.26
2019-03-16T03:43:41.182Z,7.30
2019-03-16T03:44:41.170Z,7.30
2019-03-16T03:45:41.162Z,7.26
2019-03-16T03:46:41.157Z,7.33
2019-03-16T03:47:41.138Z,7.27
2019-03-16T03:48:41.127Z,7.24
2019-03-16T03:49:41.157Z,7.26
2019-03-16T03:50:41.107Z,7.19
2019-03-16T03:51:41.110Z,7.18
2019-03-16T03:52:41.086Z,7.19
2019-03-16T03:53:41.539Z,7.29
2019-03-16T03:54:41.063Z,7.30
2019-03-16T03:55:41.076Z,7.23
2019-03-16T03:56:41.050Z,7.24
2019-03-16T03:57:41.028Z,7.24
2019-03-16T03:58:41.019Z,7.30
2019-03-16T03:59:41.008Z,7.23
2019-03-16T04:00:40.995Z,7.26
2019-03-16T04:01:41.251Z,7.32
2019-03-16T04:02:40.977Z,7.23
2019-03-16T04:03:40.968Z,7.30
2019-03-16T04:04:40.950Z,7.23
2019-03-16T04:05:40.950Z,7.27
2019-03-16T04:06:40.937Z,7.30
2019-03-16T04:07:40.921Z,7.27
2019-03-16T04:08:40.908Z,7.32
2019-03-16T04:09:40.934Z,7.29
2019-03-16T04:10:40.887Z,7.34
2019-03-16T04:11:40.909Z,7.30
2019-03-16T04:12:40.865Z,7.27
2019-03-16T04:13:40.856Z,7.26
2019-03-16T04:14:40.843Z,7.32
2019-03-16T04:15:40.836Z,7.29
2019-03-16T04:16:40.823Z,7.27
2019-03-16T04:17:40.833Z,7.37
2019-03-16T04:18:40.803Z,7.34
2019-03-16T04:19:40.787Z,7.29
2019-03-16T04:20:40.782Z,7.32
2019-03-16T04:21:40.767Z,7.33
2019-03-16T04:22:40.805Z,7.37
2019-03-16T04:23:40.744Z,7.26
2019-03-16T04:24:44.919Z,7.26
2019-03-16T04:25:40.745Z,7.27
2019-03-16T04:26:40.713Z,7.24
2019-03-16T04:27:40.713Z,7.30
2019-03-16T04:28:40.693Z,7.21
2019-03-16T04:29:40.680Z,7.16
2019-03-16T04:30:40.668Z,7.21
2019-03-16T04:31:40.660Z,7.29
2019-03-16T04:32:40.678Z,7.16
2019-03-16T04:33:40.635Z,7.29
2019-03-16T04:34:40.625Z,7.21
2019-03-16T04:35:40.616Z,7.24
2019-03-16T04:36:40.603Z,7.29
2019-03-16T04:37:40.601Z,7.23
2019-03-16T04:38:40.583Z,7.27
2019-03-16T04:39:40.571Z,7.29
2019-03-16T04:40:40.560Z,7.23
2019-03-16T04:41:40.549Z,7.30
2019-03-16T04:42:40.546Z,7.30
2019-03-16T04:43:40.528Z,7.19
2019-03-16T04:44:40.521Z,7.29
2019-03-16T04:45:40.507Z,7.27
2019-03-16T04:46:40.494Z,7.29
2019-03-16T04:47:40.492Z,7.23
2019-03-16T04:48:40.474Z,7.15
2019-03-16T04:49:40.461Z,7.23
2019-03-16T04:50:40.449Z,7.21
2019-03-16T04:51:40.440Z,7.18
2019-03-16T04:52:40.442Z,7.21
2019-03-16T04:53:40.421Z,7.16
2019-03-16T04:54:40.408Z,7.15
2019-03-16T04:55:40.396Z,7.12
2019-03-16T04:56:40.387Z,7.15
2019-03-16T04:57:40.386Z,7.16
2019-03-16T04:58:40.366Z,7.18
2019-03-16T04:59:40.353Z,7.24
2019-03-16T05:00:40.343Z,7.19
2019-03-16T05:01:40.333Z,7.19
2019-03-16T05:02:40.331Z,7.26
2019-03-16T05:03:40.313Z,7.19
2019-03-16T05:04:42.663Z,7.24
2019-03-16T05:05:40.312Z,7.21
2019-03-16T05:06:40.279Z,7.24
2019-03-16T05:07:40.285Z,7.16
2019-03-16T05:08:40.256Z,7.19
2019-03-16T05:09:40.245Z,7.24
2019-03-16T05:10:40.235Z,7.19
2019-03-16T05:11:40.222Z,7.14
2019-03-16T05:12:40.223Z,7.16
2019-03-16T05:13:40.203Z,7.21
2019-03-16T05:14:40.192Z,7.21
2019-03-16T05:15:40.180Z,7.23
2019-03-16T05:16:40.171Z,7.16
2019-03-16T05:17:40.168Z,7.24
2019-03-16T05:18:40.145Z,7.23
2019-03-16T05:19:40.139Z,7.19
2019-03-16T05:20:40.126Z,7.18
2019-03-16T05:21:40.115Z,7.16
2019-03-16T05:22:40.112Z,7.16
2019-03-16T05:23:40.092Z,7.15
2019-03-16T05:24:40.084Z,7.16
2019-03-16T05:25:40.073Z,7.19
2019-03-16T05:26:40.060Z,7.24
2019-03-16T05:27:40.068Z,7.19
2019-03-16T05:28:40.038Z,7.19
2019-03-16T05:29:40.038Z,7.18
2019-03-16T05:30:40.018Z,7.21
2019-03-16T05:31:40.005Z,7.19
2019-03-16T05:32:39.998Z,7.18
2019-03-16T05:33:39.993Z,7.19
2019-03-16T05:34:39.975Z,7.24
2019-03-16T05:35:39.960Z,7.19
2019-03-16T05:36:39.953Z,7.19
2019-03-16T05:37:39.939Z,7.19
2019-03-16T05:38:39.942Z,7.16
2019-03-16T05:39:40.005Z,7.16
2019-03-16T05:40:39.907Z,7.24
2019-03-16T05:41:39.896Z,7.27
2019-03-16T05:42:39.885Z,7.26
2019-03-16T05:43:39.897Z,7.30
2019-03-16T05:44:39.864Z,7.32
2019-03-16T05:45:39.851Z,7.26
2019-03-16T05:46:39.851Z,7.30
2019-03-16T05:47:39.830Z,7.32
2019-03-16T05:48:39.830Z,7.30
2019-03-16T05:49:39.813Z,7.30
2019-03-16T05:50:39.798Z,7.29
2019-03-16T05:51:39.791Z,7.36
2019-03-16T05:52:39.777Z,7.34
2019-03-16T05:53:39.777Z,7.37
2019-03-16T05:54:39.755Z,7.30
2019-03-16T05:55:39.753Z,7.33
2019-03-16T05:56:39.734Z,7.34
2019-03-16T05:57:39.722Z,7.39
2019-03-16T05:58:39.725Z,7.32
2019-03-16T05:59:39.700Z,7.37
2019-03-16T06:00:39.691Z,7.44
2019-03-16T06:01:39.686Z,7.36
2019-03-16T06:02:39.668Z,7.41
2019-03-16T06:03:39.691Z,7.41
2019-03-16T06:04:39.649Z,7.41
2019-03-16T06:05:39.635Z,7.36
2019-03-16T06:06:39.623Z,7.50
2019-03-16T06:07:39.639Z,7.52
2019-03-16T06:08:39.612Z,7.54
2019-03-16T06:09:39.591Z,7.55
2019-03-16T06:10:39.580Z,7.57
2019-03-16T06:11:39.570Z,7.52
2019-03-16T06:12:39.561Z,7.52
2019-03-16T06:13:39.590Z,7.71
2019-03-16T06:14:39.535Z,7.66
2019-03-16T06:15:39.525Z,7.71
2019-03-16T06:16:39.515Z,7.73
2019-03-16T06:17:39.511Z,7.74
2019-03-16T06:18:39.505Z,7.84
2019-03-16T06:19:39.484Z,7.82
2019-03-16T06:20:39.471Z,7.81
2019-03-16T06:21:39.461Z,7.88
2019-03-16T06:22:39.449Z,7.91
2019-03-16T06:23:39.451Z,7.94
2019-03-16T06:24:39.427Z,7.99
2019-03-16T06:25:39.446Z,8.02
2019-03-16T06:26:39.406Z,8.06
2019-03-16T06:27:39.397Z,8.07
2019-03-16T06:28:39.392Z,8.14
2019-03-16T06:29:39.372Z,8.14
2019-03-16T06:30:39.364Z,8.09
2019-03-16T06:31:39.368Z,8.24
2019-03-16T06:32:39.343Z,8.21
2019-03-16T06:33:39.340Z,8.18
2019-03-16T06:34:39.319Z,8.28
2019-03-16T06:35:39.309Z,8.31
2019-03-16T06:36:39.300Z,8.32
2019-03-16T06:37:39.287Z,8.36
2019-03-16T06:38:39.283Z,8.32
2019-03-16T06:39:39.265Z,8.36
2019-03-16T06:40:39.252Z,8.32
2019-03-16T06:41:39.241Z,8.29
2019-03-16T06:42:39.235Z,8.31
2019-03-16T06:43:39.230Z,8.34
2019-03-16T06:44:39.215Z,8.27
2019-03-16T06:45:39.200Z,8.29
2019-03-16T06:46:39.195Z,8.36
2019-03-16T06:47:39.178Z,8.29
2019-03-16T06:48:39.177Z,8.34
2019-03-16T06:49:39.183Z,8.32
2019-03-16T06:50:39.143Z,8.32
2019-03-16T06:51:39.132Z,8.34
2019-03-16T06:52:39.121Z,8.37
2019-03-16T06:53:39.133Z,8.34
2019-03-16T06:54:39.099Z,8.40
2019-03-16T06:55:39.088Z,8.49
2019-03-16T06:56:39.080Z,8.43
2019-03-16T06:57:39.066Z,8.40
2019-03-16T06:58:39.128Z,8.39
2019-03-16T06:59:39.054Z,8.54
2019-03-16T07:00:39.034Z,8.45
2019-03-16T07:01:39.037Z,8.47
2019-03-16T07:02:39.013Z,8.42
2019-03-16T07:03:39.003Z,8.47
2019-03-16T07:04:39.000Z,8.49
2019-03-16T07:05:39.126Z,8.43
2019-03-16T07:06:38.970Z,8.42
2019-03-16T07:07:38.958Z,8.52
2019-03-16T07:08:38.945Z,8.47
2019-03-16T07:09:38.947Z,8.45
2019-03-16T07:10:38.926Z,8.45
2019-03-16T07:11:38.914Z,8.45
2019-03-16T07:12:38.931Z,8.50
2019-03-16T07:13:38.893Z,8.54
2019-03-16T07:14:38.952Z,8.60
2019-03-16T07:15:38.868Z,8.64
2019-03-16T07:16:38.860Z,8.65
2019-03-16T07:17:38.850Z,8.70
2019-03-16T07:18:38.854Z,8.78
2019-03-16T07:19:38.928Z,8.73
2019-03-16T07:20:38.816Z,8.82
2019-03-16T07:21:38.845Z,8.86
2019-03-16T07:22:38.813Z,8.79
2019-03-16T07:23:38.783Z,8.91
2019-03-16T07:24:38.802Z,8.94
2019-03-16T07:25:38.763Z,9.00
2019-03-16T07:26:38.752Z,8.98
2019-03-16T07:27:38.741Z,9.06
2019-03-16T07:28:38.727Z,9.04
2019-03-16T07:29:38.725Z,9.04
2019-03-16T07:30:38.786Z,9.08
2019-03-16T07:31:38.713Z,9.06
2019-03-16T07:32:38.692Z,9.16
2019-03-16T07:33:38.700Z,9.24
2019-03-16T07:34:38.706Z,9.37
2019-03-16T07:35:38.653Z,9.48
2019-03-16T07:36:38.640Z,9.59
2019-03-16T07:37:38.628Z,9.71
2019-03-16T07:38:38.616Z,9.56
2019-03-16T07:39:38.617Z,9.71
2019-03-16T07:40:38.595Z,9.73
2019-03-16T07:41:38.583Z,9.91
2019-03-16T07:42:38.572Z,9.89
2019-03-16T07:43:38.588Z,10.02
2019-03-16T07:44:38.569Z,10.16
2019-03-16T07:45:38.540Z,10.28
2019-03-16T07:46:38.529Z,10.43
2019-03-16T07:47:38.543Z,10.38
2019-03-16T07:48:38.514Z,10.16
2019-03-16T07:49:39.125Z,10.14
2019-03-16T07:50:38.494Z,10.29
2019-03-16T07:51:38.475Z,10.16
2019-03-16T07:52:38.464Z,10.17
2019-03-16T07:53:38.454Z,10.13
2019-03-16T07:54:38.466Z,10.17
2019-03-16T07:55:38.439Z,10.25
2019-03-16T07:56:38.419Z,10.25
2019-03-16T07:57:40.415Z,10.28
2019-03-16T07:58:39.242Z,10.25
2019-03-16T07:59:38.397Z,10.51
2019-03-16T08:00:38.375Z,10.68
2019-03-16T08:01:38.365Z,10.60
2019-03-16T08:02:38.358Z,10.44
2019-03-16T08:03:38.349Z,10.36
2019-03-16T08:04:38.341Z,10.44
2019-03-16T08:05:38.321Z,10.39
2019-03-16T08:06:38.310Z,10.58
2019-03-16T08:07:38.301Z,10.47
2019-03-16T08:08:38.290Z,10.63
2019-03-16T08:09:38.289Z,10.73
2019-03-16T08:10:38.266Z,10.70
2019-03-16T08:12:07.298Z,10.88
2019-03-16T08:12:41.773Z,11.08
2019-03-16T08:13:38.852Z,11.16
2019-03-16T08:14:39.456Z,11.09
2019-03-16T08:15:38.305Z,11.01
2019-03-16T08:16:40.294Z,11.02
2019-03-16T08:17:38.269Z,11.23
2019-03-16T08:18:38.272Z,11.12
2019-03-16T08:19:38.332Z,11.08
2019-03-16T08:20:38.277Z,10.99
2019-03-16T08:21:38.158Z,10.93
2019-03-16T08:22:38.178Z,10.94
2019-03-16T08:23:38.797Z,10.95
2019-03-16T08:24:38.223Z,10.80
2019-03-16T08:25:38.121Z,10.84
2019-03-16T08:26:38.099Z,10.78
2019-03-16T08:27:38.088Z,10.76
2019-03-16T08:28:38.073Z,10.84
2019-03-16T08:29:38.071Z,10.72
2019-03-16T08:30:38.049Z,10.76
2019-03-16T08:31:38.038Z,10.68
2019-03-16T08:32:38.030Z,10.68
2019-03-16T08:33:38.013Z,10.75
2019-03-16T08:34:38.145Z,10.72
2019-03-16T08:35:38.019Z,10.76
2019-03-16T08:36:38.004Z,10.75
2019-03-16T08:37:37.977Z,10.69
2019-03-16T08:38:37.963Z,10.62
2019-03-16T08:39:37.976Z,10.58
2019-03-16T08:40:37.937Z,10.76
2019-03-16T08:41:38.085Z,10.84
2019-03-16T08:42:37.997Z,10.83
2019-03-16T08:43:37.970Z,10.93
2019-03-16T08:44:38.221Z,10.94
2019-03-16T08:45:37.900Z,11.11
2019-03-16T08:46:37.938Z,11.19
2019-03-16T08:47:37.879Z,11.21
2019-03-16T08:48:37.863Z,11.35
2019-03-16T08:49:37.871Z,11.23
2019-03-16T08:50:37.832Z,11.17
2019-03-16T08:51:37.823Z,11.06
2019-03-16T08:52:37.810Z,11.09
2019-03-16T08:53:37.804Z,10.99
2019-03-16T08:54:37.804Z,11.01
2019-03-16T08:55:37.783Z,11.02
2019-03-16T08:56:37.811Z,11.11
2019-03-16T08:57:38.089Z,11.23
2019-03-16T08:58:38.572Z,11.42
2019-03-16T08:59:37.777Z,11.67
2019-03-16T09:00:37.731Z,11.63
2019-03-16T09:01:37.717Z,11.81
2019-03-16T09:02:37.749Z,11.74
2019-03-16T09:03:43.633Z,11.60
2019-03-16T09:04:38.719Z,11.51
2019-03-16T09:05:37.673Z,11.51
2019-03-16T09:06:37.657Z,11.90
2019-03-16T09:07:37.648Z,12.18
2019-03-16T09:08:37.628Z,12.29
2019-03-16T09:09:37.620Z,12.12
2019-03-16T09:10:37.615Z,12.01
2019-03-16T09:11:37.598Z,11.97
2019-03-16T09:12:37.585Z,12.03
2019-03-16T09:13:37.573Z,12.07
2019-03-16T09:14:37.562Z,11.94
2019-03-16T09:15:37.564Z,11.97
2019-03-16T09:16:37.543Z,12.04
2019-03-16T09:17:37.531Z,12.23
2019-03-16T09:18:37.518Z,12.19
2019-03-16T09:19:37.506Z,12.25
2019-03-16T09:20:37.504Z,12.25
2019-03-16T09:21:37.532Z,12.21
2019-03-16T09:22:37.479Z,12.08
2019-03-16T09:23:37.463Z,12.31
2019-03-16T09:24:37.499Z,12.22
2019-03-16T09:25:37.472Z,12.07
2019-03-16T09:26:37.436Z,11.97
2019-03-16T09:27:37.427Z,12.05
2019-03-16T09:28:37.409Z,12.19
2019-03-16T09:29:37.398Z,12.25
2019-03-16T09:30:37.395Z,12.31
2019-03-16T09:31:37.375Z,12.21
2019-03-16T09:32:37.366Z,12.33
2019-03-16T09:33:37.358Z,12.36
2019-03-16T09:34:37.344Z,12.30
2019-03-16T09:35:37.340Z,12.61
2019-03-16T09:36:37.356Z,12.51
2019-03-16T09:37:37.309Z,12.54
2019-03-16T09:38:37.298Z,12.33
2019-03-16T09:39:37.287Z,12.25
2019-03-16T09:40:37.341Z,12.25
2019-03-16T09:41:37.266Z,12.56
2019-03-16T09:42:37.259Z,12.66
2019-03-16T09:43:37.250Z,12.54
2019-03-16T09:44:37.233Z,12.31
2019-03-16T09:45:37.269Z,12.29
2019-03-16T09:46:37.211Z,12.33
2019-03-16T09:47:37.201Z,12.37
2019-03-16T09:48:37.189Z,12.30
2019-03-16T09:49:37.200Z,12.36
2019-03-16T09:50:37.176Z,12.40
2019-03-16T09:51:37.155Z,12.51
2019-03-16T09:52:37.145Z,12.69
2019-03-16T09:53:37.133Z,12.66
2019-03-16T09:54:37.123Z,12.54
2019-03-16T09:55:37.125Z,12.46
2019-03-16T09:56:37.101Z,12.49
2019-03-16T09:57:37.089Z,12.49
2019-03-16T09:58:37.081Z,12.62
2019-03-16T09:59:37.080Z,12.69
2019-03-16T10:00:37.066Z,12.85
2019-03-16T10:01:37.053Z,12.84
2019-03-16T10:02:37.034Z,12.84
2019-03-16T10:03:37.028Z,12.69
2019-03-16T10:04:37.013Z,12.70
2019-03-16T10:05:37.015Z,12.55
2019-03-16T10:06:36.992Z,12.54
2019-03-16T10:07:36.994Z,12.46
2019-03-16T10:08:36.968Z,12.34
2019-03-16T10:09:36.956Z,12.33
2019-03-16T10:10:36.968Z,12.31
2019-03-16T10:11:36.940Z,12.34
2019-03-16T10:12:36.927Z,12.33
2019-03-16T10:13:36.921Z,12.29
2019-03-16T10:14:37.339Z,12.34
2019-03-16T10:15:36.903Z,12.49
2019-03-16T10:16:36.888Z,12.48
2019-03-16T10:17:36.872Z,12.80
2019-03-16T10:18:36.864Z,12.87
2019-03-16T10:19:36.851Z,12.67
2019-03-16T10:20:36.878Z,12.58
2019-03-16T10:21:36.830Z,12.46
2019-03-16T10:22:40.323Z,12.51
2019-03-16T10:23:36.814Z,12.29
2019-03-16T10:24:36.855Z,12.21
2019-03-16T10:25:36.794Z,12.30
2019-03-16T10:26:37.686Z,12.30
2019-03-16T10:27:36.767Z,12.31
2019-03-16T10:28:43.736Z,12.21
2019-03-16T10:29:37.740Z,12.21
2019-03-16T10:30:36.772Z,12.18
2019-03-16T10:31:36.715Z,12.19
2019-03-16T10:32:36.705Z,12.21
2019-03-16T10:33:36.693Z,12.18
2019-03-16T10:34:36.684Z,12.22
2019-03-16T10:35:36.678Z,12.23
2019-03-16T10:36:36.670Z,12.25
2019-03-16T10:37:36.649Z,12.23
2019-03-16T10:38:38.426Z,12.19
2019-03-16T10:39:36.628Z,12.08
2019-03-16T10:40:36.615Z,12.05
2019-03-16T10:41:36.620Z,12.00
2019-03-16T10:42:36.596Z,11.98
2019-03-16T10:43:36.680Z,11.96
2019-03-16T10:44:36.576Z,11.84
2019-03-16T10:45:36.579Z,11.82
2019-03-16T10:46:36.558Z,11.78
2019-03-16T10:47:36.539Z,11.85
2019-03-16T10:48:36.528Z,11.84
2019-03-16T10:49:36.518Z,11.96
2019-03-16T10:50:36.505Z,12.00
2019-03-16T10:51:36.512Z,11.90
2019-03-16T10:52:36.486Z,12.01
2019-03-16T10:53:36.492Z,12.07
2019-03-16T10:54:36.463Z,12.03
2019-03-16T10:55:36.454Z,11.94
2019-03-16T10:56:36.453Z,11.90
2019-03-16T10:57:36.428Z,11.85
2019-03-16T10:58:36.474Z,11.78
2019-03-16T10:59:36.408Z,11.66
2019-03-16T11:00:36.396Z,11.59
2019-03-16T11:01:36.398Z,11.57
2019-03-16T11:02:36.410Z,11.53
2019-03-16T11:03:36.369Z,11.45
2019-03-16T11:04:36.353Z,11.45
2019-03-16T11:05:36.365Z,11.39
2019-03-16T11:06:36.330Z,11.41
2019-03-16T11:07:36.327Z,11.33
2019-03-16T11:08:36.319Z,11.28
2019-03-16T11:09:36.313Z,11.27
2019-03-16T11:10:36.293Z,11.20
2019-03-16T11:11:36.276Z,11.26
2019-03-16T11:12:36.274Z,11.13
2019-03-16T11:13:36.253Z,11.23
2019-03-16T11:14:36.243Z,11.09
2019-03-16T11:15:36.233Z,11.11
2019-03-16T11:16:36.221Z,11.05
2019-03-16T11:17:36.219Z,11.03
2019-03-16T11:18:36.198Z,11.03
2019-03-16T11:19:36.189Z,10.98
2019-03-16T11:20:36.186Z,11.01
2019-03-16T11:21:36.165Z,11.03
2019-03-16T11:22:36.162Z,10.88
2019-03-16T11:23:36.143Z,10.95
2019-03-16T11:24:36.132Z,10.87
2019-03-16T11:25:36.124Z,10.86
2019-03-16T11:26:36.110Z,10.91
2019-03-16T11:27:36.119Z,10.90
2019-03-16T11:28:36.087Z,10.81
2019-03-16T11:29:36.079Z,10.78
2019-03-16T11:30:36.068Z,10.78
2019-03-16T11:31:36.059Z,10.84
2019-03-16T11:32:36.073Z,10.76
2019-03-16T11:33:36.034Z,10.80
2019-03-16T11:34:36.023Z,10.70
2019-03-16T11:35:36.013Z,10.65
2019-03-16T11:36:36.003Z,10.63
2019-03-16T11:37:36.001Z,10.65
2019-03-16T11:38:35.983Z,10.52
2019-03-16T11:39:35.979Z,10.52
2019-03-16T11:40:36.016Z,10.57
2019-03-16T11:41:35.948Z,10.39
2019-03-16T11:42:35.947Z,10.36
2019-03-16T11:43:35.932Z,10.35
2019-03-16T11:44:35.915Z,10.35
2019-03-16T11:45:35.909Z,10.26
2019-03-16T11:46:35.899Z,10.29
2019-03-16T11:47:35.915Z,10.22
2019-03-16T11:48:35.875Z,10.28
2019-03-16T11:49:35.859Z,10.26
2019-03-16T11:50:35.848Z,10.18
2019-03-16T11:51:35.849Z,10.14
2019-03-16T11:52:35.826Z,10.13
2019-03-16T11:53:35.833Z,10.14
2019-03-16T11:54:35.825Z,10.06
2019-03-16T11:55:36.351Z,10.06
2019-03-16T11:56:35.782Z,9.95
2019-03-16T11:57:35.774Z,9.92
2019-03-16T11:58:35.772Z,9.92
2019-03-16T11:59:35.749Z,9.88
2019-03-16T12:00:35.748Z,9.70
2019-03-16T12:01:35.729Z,9.77
2019-03-16T12:02:35.742Z,9.70
2019-03-16T12:03:35.942Z,9.70
2019-03-16T12:04:35.697Z,9.65
2019-03-16T12:05:35.691Z,9.62
2019-03-16T12:06:35.674Z,9.62
2019-03-16T12:07:35.716Z,9.59
2019-03-16T12:08:36.352Z,9.56
2019-03-16T12:09:35.732Z,9.50
2019-03-16T12:10:35.632Z,9.56
2019-03-16T12:11:35.669Z,9.49
2019-03-16T12:12:35.612Z,9.60
2019-03-16T12:13:35.605Z,9.49
2019-03-16T12:14:35.586Z,9.49
2019-03-16T12:15:35.588Z,9.48
2019-03-16T12:16:35.603Z,9.45
2019-03-16T12:17:35.558Z,9.38
2019-03-16T12:18:35.577Z,9.26
2019-03-16T12:19:36.341Z,9.22
2019-03-16T12:20:35.527Z,9.26
2019-03-16T12:21:35.524Z,9.19
2019-03-16T12:22:35.510Z,9.20
2019-03-16T12:23:35.504Z,9.17
2019-03-16T12:24:35.495Z,9.20
2019-03-16T12:25:35.466Z,9.15
2019-03-16T12:26:35.454Z,9.08
2019-03-16T12:27:36.362Z,9.08
2019-03-16T12:28:35.455Z,9.03
2019-03-16T12:29:35.426Z,8.93
2019-03-16T12:30:35.427Z,8.94
2019-03-16T12:31:35.405Z,8.80
2019-03-16T12:32:35.393Z,8.86
2019-03-16T12:33:35.387Z,8.80
2019-03-16T12:34:35.380Z,8.75
2019-03-16T12:35:35.365Z,8.68
2019-03-16T12:36:35.346Z,8.75
2019-03-16T12:37:35.333Z,8.75
2019-03-16T12:38:35.326Z,8.70
2019-03-16T12:39:35.768Z,8.68
2019-03-16T12:40:35.303Z,8.68
2019-03-16T12:41:35.291Z,8.70
2019-03-16T12:42:35.279Z,8.73
2019-03-16T12:43:35.269Z,8.76
2019-03-16T12:44:35.381Z,8.73
2019-03-16T12:45:35.261Z,8.76
2019-03-16T12:46:35.835Z,8.64
2019-03-16T12:47:42.942Z,8.67
2019-03-16T12:48:35.218Z,8.70
2019-03-16T12:49:35.219Z,8.70
2019-03-16T12:50:35.196Z,8.58
2019-03-16T12:51:35.181Z,8.60
2019-03-16T12:52:35.172Z,8.63
2019-03-16T12:53:35.162Z,8.61
2019-03-16T12:54:35.158Z,8.52
2019-03-16T12:55:44.395Z,8.45
2019-03-16T12:56:35.126Z,8.42
2019-03-16T12:57:35.118Z,8.46
2019-03-16T12:58:35.127Z,8.47
2019-03-16T12:59:46.424Z,8.39
2019-03-16T13:00:36.091Z,8.40
2019-03-16T13:01:35.107Z,8.43
2019-03-16T13:02:35.062Z,8.40
2019-03-16T13:03:35.050Z,8.43
2019-03-16T13:04:35.048Z,8.45
2019-03-16T13:05:35.030Z,8.40
2019-03-16T13:06:35.023Z,8.47
2019-03-16T13:07:35.008Z,8.46
2019-03-16T13:08:34.999Z,8.36
2019-03-16T13:09:34.998Z,8.40
2019-03-16T13:10:34.977Z,8.40